UAL241 KFLL-KJFK
Flight info
| Callsign | UAL241 |
|---|---|
| Flight time | N/A |
| Altitude | 37000 |
| Route | AGERS1 DUCEN Q87 JROSS DCT JOHAR Q109 DFENC DCT SAWED Q108 SIE CAMRN5 |
| Aircraft | A20N/M-SDE2E3FGHIRWXY/LB1 |
Departure
| Time | 2026-05-04 00:49 |
|---|---|
| Airport | Fort Lauderdale Hollywood International Airport (KFLL) |
Arrival
| Time | N/A |
|---|---|
| Airport | John F. Kennedy International Airport (KJFK) |
| Time | Latitude | Longitude | Altitude | Speed | Heading |
|---|---|---|---|---|---|
| 2026-05-04 00:25 | 26.07398 | -80.14331 | 26 ft | 0 kts | 180° |
| 2026-05-04 00:38 | 26.07417 | -80.14331 | 27 ft | 3 kts | 180° |
| 2026-05-04 00:39 | 26.07435 | -80.14330 | 27 ft | 3 kts | 180° |
| 2026-05-04 00:39 | 26.07453 | -80.14330 | 29 ft | 3 kts | 180° |
| 2026-05-04 00:39 | 26.07471 | -80.14329 | 26 ft | 3 kts | 208° |
| 2026-05-04 00:39 | 26.07483 | -80.14315 | 26 ft | 3 kts | 253° |
| 2026-05-04 00:40 | 26.07485 | -80.14308 | 26 ft | 0 kts | 271° |
| 2026-05-04 00:42 | 26.07486 | -80.14316 | 27 ft | 7 kts | 271° |
| 2026-05-04 00:43 | 26.07487 | -80.14401 | 27 ft | 12 kts | 271° |
| 2026-05-04 00:43 | 26.07488 | -80.14492 | 28 ft | 12 kts | 271° |
| 2026-05-04 00:43 | 26.07490 | -80.14586 | 29 ft | 14 kts | 271° |
| 2026-05-04 00:43 | 26.07492 | -80.14721 | 27 ft | 21 kts | 270° |
| 2026-05-04 00:44 | 26.07493 | -80.14912 | 23 ft | 28 kts | 271° |
| 2026-05-04 00:44 | 26.07494 | -80.15140 | 22 ft | 32 kts | 270° |
| 2026-05-04 00:44 | 26.07495 | -80.15407 | 19 ft | 36 kts | 270° |
| 2026-05-04 00:44 | 26.07496 | -80.15692 | 23 ft | 38 kts | 270° |
| 2026-05-04 00:45 | 26.07497 | -80.15980 | 27 ft | 37 kts | 270° |
| 2026-05-04 00:45 | 26.07497 | -80.16274 | 27 ft | 39 kts | 270° |
| 2026-05-04 00:45 | 26.07498 | -80.16429 | 27 ft | 1 kts | 270° |
| 2026-05-04 00:45 | 26.07499 | -80.16530 | 28 ft | 6 kts | 270° |
| 2026-05-04 00:46 | 26.07503 | -80.16608 | 27 ft | 26 kts | 276° |
| 2026-05-04 00:46 | 26.07529 | -80.16701 | 26 ft | 6 kts | 330° |
| 2026-05-04 00:46 | 26.07543 | -80.16706 | 25 ft | 1 kts | 355° |
| 2026-05-04 00:46 | 26.07597 | -80.16675 | 25 ft | 4 kts | 60° |
| 2026-05-04 00:47 | 26.07611 | -80.16655 | 27 ft | 1 kts | 33° |
| 2026-05-04 00:47 | 26.07612 | -80.16654 | 28 ft | 0 kts | 26° |
| 2026-05-04 00:47 | 26.07613 | -80.16654 | 28 ft | 2 kts | 26° |
| 2026-05-04 00:48 | 26.07667 | -80.16631 | 25 ft | 14 kts | 36° |
| 2026-05-04 00:48 | 26.07694 | -80.16580 | 29 ft | 0 kts | 88° |
| 2026-05-04 00:48 | 26.07694 | -80.16578 | 29 ft | 4 kts | 88° |
| 2026-05-04 00:49 | 26.07694 | -80.16280 | 30 ft | 77 kts | 90° |
| 2026-05-04 00:49 | 26.07689 | -80.15341 | 21 ft | 164 kts | 91° |
| 2026-05-04 00:49 | 26.07661 | -80.13886 | 393 ft | 203 kts | 87° |
| 2026-05-04 00:49 | 26.07633 | -80.12789 | 700 ft | 228 kts | 89° |
| 2026-05-04 00:50 | 26.08001 | -80.10201 | 1494 ft | 263 kts | 72° |
| 2026-05-04 00:50 | 26.08367 | -80.08930 | 2233 ft | 257 kts | 71° |
| 2026-05-04 00:50 | 26.09226 | -80.07207 | 3095 ft | 259 kts | 43° |
| 2026-05-04 00:50 | 26.10792 | -80.06156 | 3625 ft | 273 kts | 20° |
| 2026-05-04 00:51 | 26.13317 | -80.05209 | 3891 ft | 309 kts | 15° |
| 2026-05-04 00:51 | 26.15554 | -80.04796 | 3763 ft | 343 kts | 357° |
| 2026-05-04 00:51 | 26.17985 | -80.05358 | 3538 ft | 373 kts | 341° |
| 2026-05-04 00:51 | 26.20355 | -80.06343 | 4630 ft | 333 kts | 336° |
| 2026-05-04 00:52 | 26.21678 | -80.06983 | 5579 ft | 282 kts | 333° |
| 2026-05-04 00:52 | 26.23272 | -80.07776 | 6591 ft | 241 kts | 332° |
| 2026-05-04 00:52 | 26.24811 | -80.08536 | 7548 ft | 242 kts | 331° |
| 2026-05-04 00:52 | 26.26357 | -80.09300 | 8486 ft | 244 kts | 331° |
| 2026-05-04 00:53 | 26.27918 | -80.10072 | 9448 ft | 246 kts | 330° |
| 2026-05-04 00:53 | 26.29487 | -80.10849 | 10401 ft | 247 kts | 330° |
| 2026-05-04 00:53 | 26.31072 | -80.11637 | 11346 ft | 252 kts | 330° |
| 2026-05-04 00:53 | 26.32677 | -80.12438 | 12298 ft | 253 kts | 330° |
| 2026-05-04 00:54 | 26.34283 | -80.13241 | 13261 ft | 254 kts | 329° |
| 2026-05-04 00:54 | 26.35896 | -80.14048 | 14156 ft | 255 kts | 329° |
| 2026-05-04 00:54 | 26.37516 | -80.14860 | 15006 ft | 256 kts | 328° |
| 2026-05-04 00:54 | 26.39141 | -80.15676 | 15839 ft | 257 kts | 328° |
| 2026-05-04 00:55 | 26.40756 | -80.16487 | 16655 ft | 259 kts | 327° |
| 2026-05-04 00:55 | 26.42402 | -80.17315 | 17512 ft | 259 kts | 327° |
| 2026-05-04 00:55 | 26.44046 | -80.18142 | 18348 ft | 258 kts | 326° |
| 2026-05-04 00:55 | 26.45676 | -80.18959 | 19031 ft | 256 kts | 326° |
| 2026-05-04 00:56 | 26.47297 | -80.19769 | 19684 ft | 254 kts | 325° |
| 2026-05-04 00:56 | 26.48908 | -80.20572 | 20338 ft | 253 kts | 325° |
| 2026-05-04 00:56 | 26.50514 | -80.21372 | 20945 ft | 253 kts | 324° |
| 2026-05-04 00:56 | 26.52122 | -80.22172 | 21550 ft | 252 kts | 324° |
| 2026-05-04 00:57 | 26.53727 | -80.22970 | 22166 ft | 252 kts | 323° |
| 2026-05-04 00:57 | 26.55327 | -80.23764 | 22739 ft | 251 kts | 322° |
| 2026-05-04 00:57 | 26.56904 | -80.24547 | 23271 ft | 252 kts | 322° |
| 2026-05-04 00:57 | 26.58544 | -80.25290 | 23732 ft | 263 kts | 335° |
| 2026-05-04 00:58 | 26.60417 | -80.25614 | 24041 ft | 277 kts | 339° |
| 2026-05-04 00:58 | 26.62369 | -80.25879 | 24276 ft | 288 kts | 340° |
| 2026-05-04 00:58 | 26.64385 | -80.26156 | 24517 ft | 297 kts | 340° |
| 2026-05-04 00:58 | 26.66475 | -80.26466 | 24761 ft | 308 kts | 340° |
| 2026-05-04 00:59 | 26.68631 | -80.26805 | 25004 ft | 318 kts | 339° |
| 2026-05-04 00:59 | 26.70826 | -80.27293 | 25251 ft | 322 kts | 332° |
| 2026-05-04 00:59 | 26.72972 | -80.28068 | 25492 ft | 328 kts | 328° |
| 2026-05-04 00:59 | 26.75147 | -80.28962 | 25734 ft | 338 kts | 328° |
| 2026-05-04 01:00 | 26.77385 | -80.29903 | 25990 ft | 349 kts | 328° |
| 2026-05-04 01:00 | 26.79686 | -80.30870 | 26230 ft | 359 kts | 328° |
| 2026-05-04 01:00 | 26.82060 | -80.31866 | 26482 ft | 368 kts | 329° |
| 2026-05-04 01:00 | 26.84487 | -80.32882 | 26764 ft | 375 kts | 329° |
| 2026-05-04 01:01 | 26.86942 | -80.33905 | 27013 ft | 377 kts | 329° |
| 2026-05-04 01:01 | 26.89415 | -80.34937 | 27267 ft | 383 kts | 329° |
| 2026-05-04 01:01 | 26.91901 | -80.35980 | 27522 ft | 390 kts | 329° |
| 2026-05-04 01:01 | 26.94473 | -80.37049 | 27781 ft | 398 kts | 329° |
| 2026-05-04 01:02 | 26.97098 | -80.38113 | 28042 ft | 404 kts | 330° |
| 2026-05-04 01:02 | 26.99764 | -80.39186 | 28302 ft | 410 kts | 330° |
| 2026-05-04 01:02 | 27.02470 | -80.40275 | 28569 ft | 415 kts | 330° |
| 2026-05-04 01:02 | 27.05209 | -80.41378 | 28835 ft | 420 kts | 330° |
| 2026-05-04 01:03 | 27.07981 | -80.42496 | 29103 ft | 425 kts | 330° |
| 2026-05-04 01:03 | 27.10757 | -80.43670 | 29378 ft | 427 kts | 329° |
| 2026-05-04 01:03 | 27.13539 | -80.44891 | 29652 ft | 431 kts | 328° |
| 2026-05-04 01:03 | 27.16351 | -80.46134 | 29959 ft | 435 kts | 328° |
| 2026-05-04 01:04 | 27.19177 | -80.47385 | 30231 ft | 439 kts | 328° |
| 2026-05-04 01:04 | 27.22033 | -80.48648 | 30465 ft | 442 kts | 328° |
| 2026-05-04 01:04 | 27.24865 | -80.49899 | 30691 ft | 442 kts | 328° |
| 2026-05-04 01:04 | 27.27729 | -80.51163 | 30924 ft | 442 kts | 328° |
| 2026-05-04 01:05 | 27.30595 | -80.52430 | 31159 ft | 442 kts | 328° |
| 2026-05-04 01:05 | 27.33463 | -80.53699 | 31404 ft | 442 kts | 328° |
| 2026-05-04 01:05 | 27.36330 | -80.54958 | 31653 ft | 442 kts | 328° |
| 2026-05-04 01:05 | 27.39228 | -80.56140 | 31886 ft | 443 kts | 329° |
| 2026-05-04 01:06 | 27.42133 | -80.57293 | 32137 ft | 443 kts | 329° |
| 2026-05-04 01:06 | 27.45041 | -80.58443 | 32397 ft | 443 kts | 329° |
| 2026-05-04 01:06 | 27.47950 | -80.59596 | 32642 ft | 443 kts | 329° |
| 2026-05-04 01:06 | 27.50821 | -80.60736 | 32889 ft | 443 kts | 329° |
| 2026-05-04 01:07 | 27.53732 | -80.61893 | 33144 ft | 444 kts | 328° |
| 2026-05-04 01:07 | 27.56650 | -80.63054 | 33388 ft | 444 kts | 328° |
| 2026-05-04 01:07 | 27.59563 | -80.64214 | 33644 ft | 444 kts | 328° |
| 2026-05-04 01:07 | 27.62487 | -80.65380 | 33908 ft | 445 kts | 328° |
| 2026-05-04 01:08 | 27.65404 | -80.66543 | 34149 ft | 445 kts | 328° |
| 2026-05-04 01:08 | 27.68332 | -80.67711 | 34374 ft | 445 kts | 328° |
| 2026-05-04 01:08 | 27.71246 | -80.68874 | 34596 ft | 444 kts | 328° |
| 2026-05-04 01:08 | 27.74161 | -80.70037 | 34828 ft | 443 kts | 328° |
| 2026-05-04 01:09 | 27.77060 | -80.71195 | 35108 ft | 442 kts | 327° |
| 2026-05-04 01:09 | 27.79955 | -80.72351 | 35347 ft | 439 kts | 327° |
| 2026-05-04 01:09 | 27.82794 | -80.73486 | 35584 ft | 437 kts | 327° |
| 2026-05-04 01:09 | 27.85665 | -80.74635 | 35817 ft | 436 kts | 327° |
| 2026-05-04 01:10 | 27.88519 | -80.75779 | 36062 ft | 435 kts | 326° |
| 2026-05-04 01:10 | 27.91367 | -80.76921 | 36299 ft | 434 kts | 326° |
| 2026-05-04 01:10 | 27.94208 | -80.78061 | 36544 ft | 432 kts | 326° |
| 2026-05-04 01:10 | 27.97037 | -80.79196 | 36791 ft | 431 kts | 326° |
| 2026-05-04 01:11 | 27.99860 | -80.80329 | 37041 ft | 429 kts | 326° |
| 2026-05-04 01:11 | 28.02670 | -80.81458 | 37293 ft | 428 kts | 326° |
| 2026-05-04 01:11 | 28.05466 | -80.82581 | 37547 ft | 426 kts | 326° |
| 2026-05-04 01:11 | 28.08255 | -80.83702 | 37875 ft | 423 kts | 325° |
| 2026-05-04 01:12 | 28.11020 | -80.84813 | 38136 ft | 421 kts | 324° |
| 2026-05-04 01:12 | 28.13769 | -80.85919 | 38387 ft | 418 kts | 324° |
| 2026-05-04 01:12 | 28.16502 | -80.87019 | 38642 ft | 414 kts | 324° |
| 2026-05-04 01:12 | 28.19211 | -80.88110 | 38886 ft | 411 kts | 324° |
| 2026-05-04 01:13 | 28.21887 | -80.89188 | 39111 ft | 407 kts | 324° |
| 2026-05-04 01:13 | 28.24543 | -80.90258 | 39335 ft | 402 kts | 324° |
| 2026-05-04 01:13 | 28.27132 | -80.91302 | 39586 ft | 398 kts | 323° |
| 2026-05-04 01:13 | 28.29729 | -80.92349 | 39824 ft | 393 kts | 323° |
| 2026-05-04 01:14 | 28.32287 | -80.93381 | 40035 ft | 388 kts | 323° |
| 2026-05-04 01:14 | 28.34807 | -80.94399 | 40275 ft | 382 kts | 323° |
| 2026-05-04 01:14 | 28.37289 | -80.95401 | 40556 ft | 375 kts | 322° |
| 2026-05-04 01:14 | 28.39731 | -80.96387 | 40787 ft | 368 kts | 322° |
| 2026-05-04 01:15 | 28.42128 | -80.97356 | 40941 ft | 364 kts | 322° |
| 2026-05-04 01:15 | 28.44520 | -80.98327 | 40773 ft | 370 kts | 322° |
| 2026-05-04 01:15 | 28.47010 | -80.99379 | 39920 ft | 395 kts | 322° |
| 2026-05-04 01:15 | 28.49602 | -81.00508 | 39757 ft | 400 kts | 322° |
| 2026-05-04 01:16 | 28.52297 | -81.01701 | 38260 ft | 439 kts | 322° |
| 2026-05-04 01:16 | 28.55225 | -81.03074 | 37423 ft | 441 kts | 322° |
| 2026-05-04 01:16 | 28.57962 | -81.04293 | 38696 ft | 412 kts | 322° |
| 2026-05-04 01:16 | 28.60618 | -81.05452 | 38971 ft | 406 kts | 322° |
| 2026-05-04 01:17 | 28.62745 | -81.06375 | 39150 ft | 403 kts | 322° |